createdAt,value
2022-08-30T00:00:45.810Z,72.76
2022-08-30T00:04:49.929Z,72.69
2022-08-30T00:08:54.299Z,72.88
2022-08-30T00:12:58.677Z,72.94
2022-08-30T00:17:03.573Z,72.98
2022-08-30T00:21:08.303Z,72.86
2022-08-30T00:25:12.531Z,73.24
2022-08-30T00:29:16.191Z,73.49
2022-08-30T00:33:21.204Z,73.60
2022-08-30T00:37:24.742Z,74.48
2022-08-30T00:41:27.887Z,74.85
2022-08-30T00:45:34.732Z,74.20
2022-08-30T00:49:43.472Z,74.26
2022-08-30T00:53:50.129Z,74.65
2022-08-30T00:57:57.813Z,75.17
2022-08-30T01:02:02.467Z,75.36
2022-08-30T01:06:08.667Z,75.09
2022-08-30T01:10:15.169Z,75.36
2022-08-30T01:14:19.348Z,74.99
2022-08-30T01:18:24.588Z,74.80
2022-08-30T01:22:37.992Z,74.57
2022-08-30T01:26:42.804Z,75.00
2022-08-30T01:30:46.607Z,74.77
2022-08-30T01:34:50.154Z,74.29
2022-08-30T01:38:55.917Z,73.96
2022-08-30T01:43:00.913Z,73.87
2022-08-30T01:47:04.521Z,73.87
2022-08-30T01:51:07.897Z,74.10
2022-08-30T01:55:12.590Z,74.66
2022-08-30T01:59:17.534Z,74.85
2022-08-30T02:03:21.403Z,74.80
2022-08-30T02:07:26.079Z,74.57
2022-08-30T02:11:29.613Z,74.48
2022-08-30T02:15:41.524Z,74.56
2022-08-30T02:19:45.708Z,74.19
2022-08-30T02:23:49.267Z,73.98
2022-08-30T02:27:52.787Z,73.42
2022-08-30T02:31:57.895Z,73.90
2022-08-30T02:36:01.391Z,74.14
2022-08-30T02:40:06.904Z,74.50
2022-08-30T02:44:11.360Z,74.44
2022-08-30T02:48:16.704Z,74.38
2022-08-30T02:52:20.476Z,74.38
2022-08-30T02:56:31.665Z,74.40
2022-08-30T03:00:35.632Z,75.11
2022-08-30T03:04:40.904Z,74.96
2022-08-30T03:08:44.095Z,74.49
2022-08-30T03:12:48.462Z,73.98
2022-08-30T03:16:52.148Z,73.54
2022-08-30T03:20:57.207Z,73.82
2022-08-30T03:25:01.847Z,74.27
2022-08-30T03:29:05.632Z,74.39
2022-08-30T03:33:09.210Z,74.35
2022-08-30T03:37:16.124Z,74.56
2022-08-30T03:41:19.631Z,74.77
2022-08-30T03:45:23.285Z,74.28
2022-08-30T03:49:26.759Z,74.19
2022-08-30T03:53:31.790Z,74.10
2022-08-30T03:57:36.684Z,74.65
2022-08-30T04:01:40.545Z,74.54
2022-08-30T04:05:45.025Z,74.63
2022-08-30T04:09:50.095Z,74.50
2022-08-30T04:13:53.620Z,74.93
2022-08-30T04:17:56.888Z,75.17
2022-08-30T04:22:00.541Z,75.37
2022-08-30T04:26:05.636Z,75.42
2022-08-30T04:30:09.657Z,75.34
2022-08-30T04:34:12.943Z,75.38
2022-08-30T04:38:17.243Z,75.70
2022-08-30T04:42:21.658Z,75.69
2022-08-30T04:46:25.584Z,75.79
2022-08-30T04:50:29.249Z,75.87
2022-08-30T04:54:33.526Z,75.57
2022-08-30T04:58:38.242Z,76.40
2022-08-30T05:02:43.161Z,76.40
2022-08-30T05:06:46.825Z,76.61
2022-08-30T05:10:52.911Z,76.66
2022-08-30T05:14:58.421Z,76.78
2022-08-30T05:19:01.717Z,76.79
2022-08-30T05:23:06.017Z,76.95
2022-08-30T05:27:09.499Z,77.08
2022-08-30T05:31:21.769Z,76.83
2022-08-30T05:35:25.976Z,77.00
2022-08-30T05:39:51.260Z,76.72
2022-08-30T05:43:54.418Z,76.84
2022-08-30T05:47:59.503Z,76.73
2022-08-30T05:52:02.653Z,76.94
2022-08-30T05:56:09.228Z,76.60
2022-08-30T06:00:15.766Z,76.64
2022-08-30T06:04:20.909Z,76.70
2022-08-30T06:08:24.115Z,76.20
2022-08-30T06:12:28.579Z,74.87
2022-08-30T06:16:33.035Z,74.58
2022-08-30T06:20:41.257Z,74.70
2022-08-30T06:25:00.131Z,73.88
2022-08-30T06:29:03.318Z,73.21
2022-08-30T06:33:07.040Z,73.13
2022-08-30T06:37:11.581Z,73.26
2022-08-30T06:41:19.156Z,72.87
2022-08-30T06:45:22.455Z,72.88
2022-08-30T06:49:28.223Z,72.43
2022-08-30T06:53:33.699Z,72.51
2022-08-30T06:57:37.086Z,71.87
2022-08-30T07:01:44.396Z,71.40
2022-08-30T07:05:50.227Z,71.39
2022-08-30T07:09:55.353Z,71.28
2022-08-30T07:13:58.967Z,70.01
2022-08-30T07:18:19.877Z,68.27
2022-08-30T07:22:23.012Z,67.10
2022-08-30T07:26:30.601Z,65.55
2022-08-30T07:30:34.799Z,64.06
2022-08-30T07:34:39.641Z,64.24
2022-08-30T07:38:42.902Z,63.52
2022-08-30T07:42:48.090Z,62.80
2022-08-30T07:46:51.407Z,61.83
2022-08-30T07:50:58.960Z,60.34
2022-08-30T07:55:04.908Z,59.93
2022-08-30T07:59:09.915Z,58.03
2022-08-30T08:03:13.063Z,58.67
2022-08-30T08:07:17.649Z,56.58
2022-08-30T08:11:25.062Z,56.02
2022-08-30T08:15:30.759Z,55.49
2022-08-30T08:19:34.527Z,54.76
2022-08-30T08:23:37.626Z,52.02
2022-08-30T08:27:41.361Z,52.23
2022-08-30T08:31:47.808Z,51.36
2022-08-30T08:35:51.085Z,49.19
2022-08-30T08:39:54.646Z,50.40
2022-08-30T08:43:58.204Z,48.70
2022-08-30T08:48:06.870Z,50.01
2022-08-30T08:52:35.784Z,49.36
2022-08-30T08:56:39.687Z,48.60
2022-08-30T09:00:43.412Z,48.79
2022-08-30T09:04:51.813Z,45.54
2022-08-30T09:08:55.454Z,43.90
2022-08-30T09:13:00.151Z,44.20
2022-08-30T09:17:07.989Z,43.05
2022-08-30T09:21:14.210Z,44.39
2022-08-30T09:25:24.504Z,44.99
2022-08-30T09:29:27.676Z,46.04
2022-08-30T09:33:31.993Z,43.96
2022-08-30T09:37:41.062Z,43.57
2022-08-30T09:41:47.223Z,42.58
2022-08-30T09:46:09.312Z,45.86
2022-08-30T09:50:16.201Z,41.98
2022-08-30T09:54:31.006Z,40.76
2022-08-30T09:58:47.436Z,42.39
2022-08-30T10:03:05.404Z,44.49
2022-08-30T10:07:15.419Z,42.62
2022-08-30T10:11:26.353Z,40.90
2022-08-30T10:15:34.592Z,38.44
2022-08-30T10:19:54.906Z,40.90
2022-08-30T10:24:04.665Z,39.27
2022-08-30T10:28:16.501Z,38.90
2022-08-30T10:32:30.262Z,39.94
2022-08-30T10:36:42.028Z,39.58
2022-08-30T10:41:09.137Z,40.21
2022-08-30T10:45:17.709Z,40.34
2022-08-30T10:49:24.385Z,38.00
2022-08-30T10:53:33.938Z,38.83
2022-08-30T10:57:37.240Z,38.31
2022-08-30T11:02:07.984Z,40.82
2022-08-30T11:06:20.129Z,39.35
2022-08-30T11:10:28.483Z,44.39
2022-08-30T11:14:31.995Z,34.34
2022-08-30T11:18:51.036Z,40.18
2022-08-30T11:23:32.541Z,40.30
2022-08-30T11:27:48.705Z,37.32
2022-08-30T11:31:52.605Z,34.14
2022-08-30T11:35:58.259Z,35.65
2022-08-30T11:40:04.013Z,35.37
2022-08-30T11:44:16.651Z,38.61
2022-08-30T11:48:54.048Z,38.76
2022-08-30T11:53:08.137Z,36.14
2022-08-30T11:57:24.146Z,33.40
2022-08-30T12:01:54.982Z,37.83
2022-08-30T12:06:03.461Z,34.95
2022-08-30T12:10:22.903Z,36.05
2022-08-30T12:14:49.206Z,38.75
2022-08-30T12:18:56.072Z,33.58
2022-08-30T12:23:14.835Z,34.08
2022-08-30T12:27:27.304Z,36.64
2022-08-30T12:31:42.249Z,36.93
2022-08-30T12:35:46.231Z,34.39
2022-08-30T12:39:53.801Z,32.29
2022-08-30T12:43:59.219Z,33.38
2022-08-30T12:48:06.405Z,34.94
2022-08-30T12:52:23.943Z,37.02
2022-08-30T12:57:19.083Z,34.61
2022-08-30T13:01:32.482Z,33.69
2022-08-30T13:05:50.491Z,34.27
2022-08-30T13:10:07.253Z,34.94
2022-08-30T13:14:33.057Z,33.37
2022-08-30T13:18:39.018Z,34.90
2022-08-30T13:22:44.942Z,33.18
2022-08-30T13:26:49.077Z,31.85
2022-08-30T13:30:52.216Z,32.59
2022-08-30T13:34:57.456Z,31.35
2022-08-30T13:39:02.382Z,31.27
2022-08-30T13:43:06.037Z,31.47
2022-08-30T13:51:36.887Z,31.79
2022-08-30T13:55:43.155Z,30.62
2022-08-30T13:59:50.904Z,32.13
2022-08-30T14:13:02.616Z,30.43
2022-08-30T14:17:12.999Z,29.55
2022-08-30T14:21:18.253Z,29.64
2022-08-30T14:25:31.300Z,31.27
2022-08-30T14:29:35.864Z,30.37
2022-08-30T14:33:40.346Z,30.72
2022-08-30T14:37:45.709Z,30.81
2022-08-30T14:41:58.370Z,31.46
2022-08-30T14:46:11.054Z,31.87
2022-08-30T14:50:15.345Z,30.51
2022-08-30T14:54:20.830Z,30.98
2022-08-30T14:58:29.819Z,32.23
2022-08-30T15:02:35.024Z,30.86
2022-08-30T15:06:40.273Z,31.84
2022-08-30T15:10:46.002Z,31.46
2022-08-30T15:14:51.513Z,32.02
2022-08-30T15:18:56.472Z,30.31
2022-08-30T15:23:02.784Z,31.03
2022-08-30T15:27:10.311Z,32.14
2022-08-30T15:31:16.562Z,32.21
2022-08-30T15:35:20.294Z,31.34
2022-08-30T15:39:26.820Z,32.19
2022-08-30T15:43:30.920Z,31.40
2022-08-30T15:47:38.575Z,33.13
2022-08-30T15:51:45.914Z,32.50
2022-08-30T15:55:49.933Z,31.92
2022-08-30T15:59:56.316Z,31.46
2022-08-30T16:04:03.410Z,31.66
2022-08-30T16:08:10.668Z,32.30
2022-08-30T16:12:22.463Z,31.65
2022-08-30T16:16:28.085Z,33.50
2022-08-30T16:20:33.930Z,34.10
2022-08-30T16:24:39.133Z,34.46
2022-08-30T16:28:44.924Z,35.89
2022-08-30T16:32:49.696Z,37.15
2022-08-30T16:36:56.599Z,37.19
2022-08-30T16:41:00.885Z,36.70
2022-08-30T16:45:10.756Z,37.03
2022-08-30T16:49:16.145Z,37.65
2022-08-30T16:53:23.378Z,38.43
2022-08-30T16:57:32.166Z,38.72
2022-08-30T17:01:40.810Z,39.60
2022-08-30T17:05:46.621Z,40.49
2022-08-30T17:09:51.472Z,40.96
2022-08-30T17:13:57.539Z,42.30
2022-08-30T17:18:01.544Z,42.24
2022-08-30T17:26:40.827Z,43.87
2022-08-30T17:30:45.217Z,44.63
2022-08-30T17:34:49.073Z,45.07
2022-08-30T17:38:53.764Z,45.38
2022-08-30T17:43:03.780Z,45.94
2022-08-30T17:47:08.714Z,46.42
2022-08-30T17:51:13.039Z,47.01
2022-08-30T17:55:17.678Z,47.62
2022-08-30T17:59:25.719Z,47.90
2022-08-30T18:03:30.027Z,49.17
2022-08-30T18:07:37.348Z,49.30
2022-08-30T18:11:42.862Z,49.16
2022-08-30T18:15:50.702Z,49.71
2022-08-30T18:19:54.218Z,49.81
2022-08-30T18:24:01.005Z,49.39
2022-08-30T18:28:08.675Z,50.03
2022-08-30T18:32:18.964Z,50.53
2022-08-30T18:36:25.575Z,50.69
2022-08-30T18:40:29.842Z,50.98
2022-08-30T18:44:37.784Z,51.18
2022-08-30T18:48:44.239Z,51.00
2022-08-30T18:52:49.177Z,50.60
2022-08-30T18:56:54.500Z,51.12
2022-08-30T19:00:58.924Z,51.79
2022-08-30T19:05:11.598Z,52.05
2022-08-30T19:09:18.686Z,52.46
2022-08-30T19:13:23.952Z,53.37
2022-08-30T19:17:28.640Z,52.80
2022-08-30T19:21:36.281Z,53.10
2022-08-30T19:25:56.823Z,53.64
2022-08-30T19:30:03.020Z,54.09
2022-08-30T19:34:08.303Z,54.36
2022-08-30T19:38:14.186Z,54.38
2022-08-30T19:42:19.806Z,55.24
2022-08-30T19:46:23.135Z,55.22
2022-08-30T19:50:27.085Z,55.51
2022-08-30T19:54:32.224Z,55.86
2022-08-30T19:58:38.402Z,55.64
2022-08-30T20:02:43.660Z,56.36
2022-08-30T20:06:49.821Z,57.09
2022-08-30T20:11:00.032Z,56.66
2022-08-30T20:15:09.986Z,57.38
2022-08-30T20:19:18.564Z,57.93
2022-08-30T20:23:26.296Z,57.69
2022-08-30T20:27:31.730Z,57.91
2022-08-30T20:31:36.907Z,58.22
2022-08-30T20:35:48.358Z,58.50
2022-08-30T20:39:52.738Z,57.11
2022-08-30T20:43:58.514Z,58.25
2022-08-30T20:48:02.212Z,58.68
2022-08-30T20:52:07.012Z,59.14
2022-08-30T20:56:15.081Z,59.36
2022-08-30T21:00:21.129Z,59.45
2022-08-30T21:04:25.687Z,59.61
2022-08-30T21:08:30.362Z,60.19
2022-08-30T21:12:34.128Z,60.25
2022-08-30T21:16:40.099Z,60.24
2022-08-30T21:20:43.779Z,60.76
2022-08-30T21:24:47.355Z,60.58
2022-08-30T21:28:52.002Z,60.88
2022-08-30T21:32:59.950Z,61.02
2022-08-30T21:37:04.129Z,61.19
2022-08-30T21:41:07.314Z,61.44
2022-08-30T21:45:13.176Z,61.57
2022-08-30T21:49:20.636Z,61.99
2022-08-30T21:53:24.067Z,62.48
2022-08-30T21:57:28.144Z,62.82
2022-08-30T22:01:36.408Z,63.25
2022-08-30T22:05:42.713Z,63.27
2022-08-30T22:09:46.298Z,63.37
2022-08-30T22:13:51.649Z,63.83
2022-08-30T22:17:56.477Z,64.46
2022-08-30T22:22:01.775Z,64.29
2022-08-30T22:26:07.102Z,64.89
2022-08-30T22:30:11.302Z,65.20
2022-08-30T22:34:14.532Z,65.19
2022-08-30T22:38:19.779Z,64.58
2022-08-30T22:42:23.587Z,65.57
2022-08-30T22:46:34.282Z,65.45
2022-08-30T22:50:38.655Z,65.79
2022-08-30T22:54:43.566Z,65.85
2022-08-30T22:58:48.149Z,65.60
2022-08-30T23:02:54.773Z,65.70
2022-08-30T23:06:57.900Z,66.60
2022-08-30T23:11:03.126Z,66.61
2022-08-30T23:15:08.597Z,66.96
2022-08-30T23:19:11.758Z,66.57
2022-08-30T23:23:32.867Z,66.64
2022-08-30T23:27:55.159Z,66.74
2022-08-30T23:32:16.255Z,66.41
2022-08-30T23:36:37.530Z,66.39
2022-08-30T23:40:58.960Z,66.50
2022-08-30T23:45:20.912Z,66.53
2022-08-30T23:49:42.058Z,66.84
2022-08-30T23:54:02.995Z,66.85
2022-08-30T23:58:24.272Z,67.14
